sensor_id;sensor_type;location;lat;lon;timestamp;temperature;humidity
43043;DHT22;28667;50.758;6.096;2023-04-25T00:02:18;7.30;99.90
43043;DHT22;28667;50.758;6.096;2023-04-25T00:04:59;7.30;99.90
43043;DHT22;28667;50.758;6.096;2023-04-25T00:07:34;7.30;99.90
43043;DHT22;28667;50.758;6.096;2023-04-25T00:10:07;7.30;99.90
43043;DHT22;28667;50.758;6.096;2023-04-25T00:12:37;7.30;99.90
43043;DHT22;28667;50.758;6.096;2023-04-25T00:15:09;7.30;99.90
43043;DHT22;28667;50.758;6.096;2023-04-25T00:17:38;7.30;99.90
43043;DHT22;28667;50.758;6.096;2023-04-25T00:20:08;7.30;99.90
43043;DHT22;28667;50.758;6.096;2023-04-25T00:22:36;7.20;99.90
43043;DHT22;28667;50.758;6.096;2023-04-25T00:25:08;7.20;99.90
43043;DHT22;28667;50.758;6.096;2023-04-25T00:27:44;7.20;99.90
43043;DHT22;28667;50.758;6.096;2023-04-25T00:30:15;7.20;99.90
43043;DHT22;28667;50.758;6.096;2023-04-25T00:32:48;7.10;99.90
43043;DHT22;28667;50.758;6.096;2023-04-25T00:35:23;7.10;99.90
43043;DHT22;28667;50.758;6.096;2023-04-25T00:37:52;7.10;99.90
43043;DHT22;28667;50.758;6.096;2023-04-25T00:40:34;7.10;99.90
43043;DHT22;28667;50.758;6.096;2023-04-25T00:43:15;7.10;99.90
43043;DHT22;28667;50.758;6.096;2023-04-25T00:45:47;7.10;99.90
43043;DHT22;28667;50.758;6.096;2023-04-25T00:48:17;7.10;99.90
43043;DHT22;28667;50.758;6.096;2023-04-25T00:50:59;7.10;99.90
43043;DHT22;28667;50.758;6.096;2023-04-25T00:53:45;7.10;99.90
43043;DHT22;28667;50.758;6.096;2023-04-25T00:56:22;7.10;99.90
43043;DHT22;28667;50.758;6.096;2023-04-25T00:58:53;7.10;99.90
43043;DHT22;28667;50.758;6.096;2023-04-25T01:01:28;7.10;99.90
43043;DHT22;28667;50.758;6.096;2023-04-25T01:03:54;7.10;99.90
43043;DHT22;28667;50.758;6.096;2023-04-25T01:06:30;7.10;99.90
43043;DHT22;28667;50.758;6.096;2023-04-25T01:09:09;7.10;99.90
43043;DHT22;28667;50.758;6.096;2023-04-25T01:11:38;7.10;99.90
43043;DHT22;28667;50.758;6.096;2023-04-25T01:14:08;7.10;99.90
43043;DHT22;28667;50.758;6.096;2023-04-25T01:16:38;7.10;99.90
43043;DHT22;28667;50.758;6.096;2023-04-25T01:19:09;7.10;99.90
43043;DHT22;28667;50.758;6.096;2023-04-25T01:21:48;7.10;99.90
43043;DHT22;28667;50.758;6.096;2023-04-25T01:24:16;7.10;99.90
43043;DHT22;28667;50.758;6.096;2023-04-25T01:26:46;7.10;99.90
43043;DHT22;28667;50.758;6.096;2023-04-25T01:29:23;7.10;99.90
43043;DHT22;28667;50.758;6.096;2023-04-25T01:31:52;7.10;99.90
43043;DHT22;28667;50.758;6.096;2023-04-25T01:34:28;7.10;99.90
43043;DHT22;28667;50.758;6.096;2023-04-25T01:36:59;7.10;99.90
43043;DHT22;28667;50.758;6.096;2023-04-25T01:39:34;7.10;99.90
43043;DHT22;28667;50.758;6.096;2023-04-25T01:42:02;7.10;99.90
43043;DHT22;28667;50.758;6.096;2023-04-25T01:44:32;7.10;99.90
43043;DHT22;28667;50.758;6.096;2023-04-25T01:47:04;7.10;99.90
43043;DHT22;28667;50.758;6.096;2023-04-25T01:49:34;7.10;99.90
43043;DHT22;28667;50.758;6.096;2023-04-25T01:52:00;7.10;99.90
43043;DHT22;28667;50.758;6.096;2023-04-25T01:54:29;7.10;99.90
43043;DHT22;28667;50.758;6.096;2023-04-25T01:57:45;7.00;99.90
43043;DHT22;28667;50.758;6.096;2023-04-25T02:00:14;7.00;99.90
43043;DHT22;28667;50.758;6.096;2023-04-25T02:02:48;7.00;99.90
43043;DHT22;28667;50.758;6.096;2023-04-25T02:05:27;7.00;99.90
43043;DHT22;28667;50.758;6.096;2023-04-25T02:07:57;6.90;99.90
43043;DHT22;28667;50.758;6.096;2023-04-25T02:10:50;6.90;99.90
43043;DHT22;28667;50.758;6.096;2023-04-25T02:13:21;6.90;99.90
43043;DHT22;28667;50.758;6.096;2023-04-25T02:16:34;6.90;99.90
43043;DHT22;28667;50.758;6.096;2023-04-25T02:19:06;6.90;99.90
43043;DHT22;28667;50.758;6.096;2023-04-25T02:21:39;6.80;99.90
43043;DHT22;28667;50.758;6.096;2023-04-25T02:24:05;6.80;99.90
43043;DHT22;28667;50.758;6.096;2023-04-25T02:26:36;6.80;99.90
43043;DHT22;28667;50.758;6.096;2023-04-25T02:29:09;6.80;99.90
43043;DHT22;28667;50.758;6.096;2023-04-25T02:31:34;6.80;99.90
43043;DHT22;28667;50.758;6.096;2023-04-25T02:34:00;6.80;99.90
43043;DHT22;28667;50.758;6.096;2023-04-25T02:36:27;6.80;99.90
43043;DHT22;28667;50.758;6.096;2023-04-25T02:38:53;6.80;99.90
43043;DHT22;28667;50.758;6.096;2023-04-25T02:41:20;6.80;99.90
43043;DHT22;28667;50.758;6.096;2023-04-25T02:43:47;6.90;99.90
43043;DHT22;28667;50.758;6.096;2023-04-25T02:46:12;6.80;99.90
43043;DHT22;28667;50.758;6.096;2023-04-25T02:48:39;6.80;99.90
43043;DHT22;28667;50.758;6.096;2023-04-25T02:51:08;6.80;99.90
43043;DHT22;28667;50.758;6.096;2023-04-25T02:53:34;6.80;99.90
43043;DHT22;28667;50.758;6.096;2023-04-25T02:56:01;6.80;99.90
43043;DHT22;28667;50.758;6.096;2023-04-25T02:58:26;6.80;99.90
43043;DHT22;28667;50.758;6.096;2023-04-25T03:00:53;6.80;99.90
43043;DHT22;28667;50.758;6.096;2023-04-25T03:03:20;6.80;99.90
43043;DHT22;28667;50.758;6.096;2023-04-25T03:05:51;6.70;99.90
43043;DHT22;28667;50.758;6.096;2023-04-25T03:08:21;6.70;99.90
43043;DHT22;28667;50.758;6.096;2023-04-25T03:10:48;6.60;99.90
43043;DHT22;28667;50.758;6.096;2023-04-25T03:13:15;6.70;99.90
43043;DHT22;28667;50.758;6.096;2023-04-25T03:15:43;6.60;99.90
43043;DHT22;28667;50.758;6.096;2023-04-25T03:18:08;6.60;99.90
43043;DHT22;28667;50.758;6.096;2023-04-25T03:20:34;6.50;99.90
43043;DHT22;28667;50.758;6.096;2023-04-25T03:23:00;6.50;99.90
43043;DHT22;28667;50.758;6.096;2023-04-25T03:25:28;6.50;99.90
43043;DHT22;28667;50.758;6.096;2023-04-25T03:27:53;6.40;99.90
43043;DHT22;28667;50.758;6.096;2023-04-25T03:30:19;6.40;99.90
43043;DHT22;28667;50.758;6.096;2023-04-25T03:32:45;6.50;99.90
43043;DHT22;28667;50.758;6.096;2023-04-25T03:35:15;6.50;99.90
43043;DHT22;28667;50.758;6.096;2023-04-25T03:37:41;6.50;99.90
43043;DHT22;28667;50.758;6.096;2023-04-25T03:40:11;6.40;99.90
43043;DHT22;28667;50.758;6.096;2023-04-25T03:43:06;6.40;99.90
43043;DHT22;28667;50.758;6.096;2023-04-25T03:45:32;6.50;99.90
43043;DHT22;28667;50.758;6.096;2023-04-25T03:47:58;6.40;99.90
43043;DHT22;28667;50.758;6.096;2023-04-25T03:50:26;6.40;99.90
43043;DHT22;28667;50.758;6.096;2023-04-25T03:52:52;6.40;99.90
43043;DHT22;28667;50.758;6.096;2023-04-25T03:55:18;6.40;99.90
43043;DHT22;28667;50.758;6.096;2023-04-25T03:57:44;6.30;99.90
43043;DHT22;28667;50.758;6.096;2023-04-25T04:00:10;6.20;99.90
43043;DHT22;28667;50.758;6.096;2023-04-25T04:02:39;6.30;99.90
43043;DHT22;28667;50.758;6.096;2023-04-25T04:05:05;6.20;99.90
43043;DHT22;28667;50.758;6.096;2023-04-25T04:07:34;6.30;99.90
43043;DHT22;28667;50.758;6.096;2023-04-25T04:10:07;6.20;99.90
43043;DHT22;28667;50.758;6.096;2023-04-25T04:12:36;6.20;99.90
43043;DHT22;28667;50.758;6.096;2023-04-25T04:15:03;6.20;99.90
43043;DHT22;28667;50.758;6.096;2023-04-25T04:17:30;6.20;99.90
43043;DHT22;28667;50.758;6.096;2023-04-25T04:19:56;6.20;99.90
43043;DHT22;28667;50.758;6.096;2023-04-25T04:22:23;6.20;99.90
43043;DHT22;28667;50.758;6.096;2023-04-25T04:24:51;6.20;99.90
43043;DHT22;28667;50.758;6.096;2023-04-25T04:27:48;6.20;99.90
43043;DHT22;28667;50.758;6.096;2023-04-25T04:30:43;6.20;99.90
43043;DHT22;28667;50.758;6.096;2023-04-25T04:33:11;6.10;99.90
43043;DHT22;28667;50.758;6.096;2023-04-25T04:35:38;6.10;99.90
43043;DHT22;28667;50.758;6.096;2023-04-25T04:38:05;6.10;99.90
43043;DHT22;28667;50.758;6.096;2023-04-25T04:40:33;6.10;99.90
43043;DHT22;28667;50.758;6.096;2023-04-25T04:43:14;6.10;99.90
43043;DHT22;28667;50.758;6.096;2023-04-25T04:46:03;6.10;99.90
43043;DHT22;28667;50.758;6.096;2023-04-25T04:48:52;6.10;99.90
43043;DHT22;28667;50.758;6.096;2023-04-25T04:51:38;6.20;99.90
43043;DHT22;28667;50.758;6.096;2023-04-25T04:54:22;6.20;99.90
43043;DHT22;28667;50.758;6.096;2023-04-25T04:57:07;6.20;99.90
43043;DHT22;28667;50.758;6.096;2023-04-25T04:59:51;6.20;99.90
43043;DHT22;28667;50.758;6.096;2023-04-25T05:02:46;6.20;99.90
43043;DHT22;28667;50.758;6.096;2023-04-25T05:05:31;6.20;99.90
43043;DHT22;28667;50.758;6.096;2023-04-25T05:08:17;6.20;99.90
43043;DHT22;28667;50.758;6.096;2023-04-25T05:11:02;6.20;99.90
43043;DHT22;28667;50.758;6.096;2023-04-25T05:13:52;6.20;99.90
43043;DHT22;28667;50.758;6.096;2023-04-25T05:16:44;6.30;99.90
43043;DHT22;28667;50.758;6.096;2023-04-25T05:19:19;6.30;99.90
43043;DHT22;28667;50.758;6.096;2023-04-25T05:22:11;6.30;99.90
43043;DHT22;28667;50.758;6.096;2023-04-25T05:24:50;6.40;99.90
43043;DHT22;28667;50.758;6.096;2023-04-25T05:27:35;6.40;99.90
43043;DHT22;28667;50.758;6.096;2023-04-25T05:30:23;6.40;99.90
43043;DHT22;28667;50.758;6.096;2023-04-25T05:33:01;6.40;99.90
43043;DHT22;28667;50.758;6.096;2023-04-25T05:35:27;6.40;99.90
43043;DHT22;28667;50.758;6.096;2023-04-25T05:37:53;6.50;99.90
43043;DHT22;28667;50.758;6.096;2023-04-25T05:40:25;6.50;99.90
43043;DHT22;28667;50.758;6.096;2023-04-25T05:43:10;6.50;99.90
43043;DHT22;28667;50.758;6.096;2023-04-25T05:46:02;6.50;99.90
43043;DHT22;28667;50.758;6.096;2023-04-25T05:48:44;6.50;99.90
43043;DHT22;28667;50.758;6.096;2023-04-25T05:51:31;6.50;99.90
43043;DHT22;28667;50.758;6.096;2023-04-25T05:54:17;6.40;99.90
43043;DHT22;28667;50.758;6.096;2023-04-25T05:56:43;6.40;99.90
43043;DHT22;28667;50.758;6.096;2023-04-25T05:59:08;6.40;99.90
43043;DHT22;28667;50.758;6.096;2023-04-25T06:01:35;6.40;99.90
43043;DHT22;28667;50.758;6.096;2023-04-25T06:04:01;6.40;99.90
43043;DHT22;28667;50.758;6.096;2023-04-25T06:06:27;6.50;99.90
43043;DHT22;28667;50.758;6.096;2023-04-25T06:08:53;6.50;99.90
43043;DHT22;28667;50.758;6.096;2023-04-25T06:11:19;6.60;99.90
43043;DHT22;28667;50.758;6.096;2023-04-25T06:13:45;6.70;99.90
43043;DHT22;28667;50.758;6.096;2023-04-25T06:16:12;6.80;99.90
43043;DHT22;28667;50.758;6.096;2023-04-25T06:18:38;6.90;99.90
43043;DHT22;28667;50.758;6.096;2023-04-25T06:21:04;7.00;99.90
43043;DHT22;28667;50.758;6.096;2023-04-25T06:23:32;7.00;99.90
43043;DHT22;28667;50.758;6.096;2023-04-25T06:26:06;6.90;99.90
43043;DHT22;28667;50.758;6.096;2023-04-25T06:28:35;6.90;99.90
43043;DHT22;28667;50.758;6.096;2023-04-25T06:31:01;7.00;99.90
43043;DHT22;28667;50.758;6.096;2023-04-25T06:33:27;7.00;99.90
43043;DHT22;28667;50.758;6.096;2023-04-25T06:35:55;7.00;99.90
43043;DHT22;28667;50.758;6.096;2023-04-25T06:38:24;7.00;99.90
43043;DHT22;28667;50.758;6.096;2023-04-25T06:40:51;7.00;99.90
43043;DHT22;28667;50.758;6.096;2023-04-25T06:43:18;7.00;99.90
43043;DHT22;28667;50.758;6.096;2023-04-25T06:45:55;7.00;99.90
43043;DHT22;28667;50.758;6.096;2023-04-25T06:48:24;7.00;99.90
43043;DHT22;28667;50.758;6.096;2023-04-25T06:50:51;7.00;99.90
43043;DHT22;28667;50.758;6.096;2023-04-25T06:53:18;7.00;99.90
43043;DHT22;28667;50.758;6.096;2023-04-25T06:55:47;7.00;99.90
43043;DHT22;28667;50.758;6.096;2023-04-25T06:58:18;7.00;99.90
43043;DHT22;28667;50.758;6.096;2023-04-25T07:00:50;7.00;99.90
43043;DHT22;28667;50.758;6.096;2023-04-25T07:03:17;6.90;99.90
43043;DHT22;28667;50.758;6.096;2023-04-25T07:05:43;6.80;99.90
43043;DHT22;28667;50.758;6.096;2023-04-25T07:08:11;6.80;99.90
43043;DHT22;28667;50.758;6.096;2023-04-25T07:10:37;6.70;99.90
43043;DHT22;28667;50.758;6.096;2023-04-25T07:13:03;6.70;99.90
43043;DHT22;28667;50.758;6.096;2023-04-25T07:15:29;6.80;99.90
43043;DHT22;28667;50.758;6.096;2023-04-25T07:17:56;6.90;99.90
43043;DHT22;28667;50.758;6.096;2023-04-25T07:20:22;7.00;99.90
43043;DHT22;28667;50.758;6.096;2023-04-25T07:22:48;7.10;99.90
43043;DHT22;28667;50.758;6.096;2023-04-25T07:25:16;7.20;99.90
43043;DHT22;28667;50.758;6.096;2023-04-25T07:27:42;7.30;99.90
43043;DHT22;28667;50.758;6.096;2023-04-25T07:30:13;7.30;99.90
43043;DHT22;28667;50.758;6.096;2023-04-25T07:32:39;7.30;99.90
43043;DHT22;28667;50.758;6.096;2023-04-25T07:35:05;7.30;99.90
43043;DHT22;28667;50.758;6.096;2023-04-25T07:37:36;7.40;99.90
43043;DHT22;28667;50.758;6.096;2023-04-25T07:40:11;7.40;99.90
43043;DHT22;28667;50.758;6.096;2023-04-25T07:42:42;7.50;99.90
43043;DHT22;28667;50.758;6.096;2023-04-25T07:45:10;7.50;99.90
43043;DHT22;28667;50.758;6.096;2023-04-25T07:47:37;7.50;99.90
43043;DHT22;28667;50.758;6.096;2023-04-25T07:50:04;7.50;99.90
43043;DHT22;28667;50.758;6.096;2023-04-25T07:52:31;7.60;99.90
43043;DHT22;28667;50.758;6.096;2023-04-25T07:55:05;7.60;99.90
43043;DHT22;28667;50.758;6.096;2023-04-25T07:57:52;7.60;99.90
43043;DHT22;28667;50.758;6.096;2023-04-25T08:00:19;7.60;99.90
43043;DHT22;28667;50.758;6.096;2023-04-25T08:02:51;7.50;99.90
43043;DHT22;28667;50.758;6.096;2023-04-25T08:05:17;7.40;99.90
43043;DHT22;28667;50.758;6.096;2023-04-25T08:07:49;7.30;99.90
43043;DHT22;28667;50.758;6.096;2023-04-25T08:10:16;7.30;99.90
43043;DHT22;28667;50.758;6.096;2023-04-25T08:12:43;7.30;99.90
43043;DHT22;28667;50.758;6.096;2023-04-25T08:15:09;7.20;99.90
43043;DHT22;28667;50.758;6.096;2023-04-25T08:17:39;7.20;99.90
43043;DHT22;28667;50.758;6.096;2023-04-25T08:20:06;7.20;99.90
43043;DHT22;28667;50.758;6.096;2023-04-25T08:22:33;7.20;99.90
43043;DHT22;28667;50.758;6.096;2023-04-25T08:25:17;7.30;99.90
43043;DHT22;28667;50.758;6.096;2023-04-25T08:27:43;7.40;99.90
43043;DHT22;28667;50.758;6.096;2023-04-25T08:30:20;7.50;99.90
43043;DHT22;28667;50.758;6.096;2023-04-25T08:32:50;7.50;99.90
43043;DHT22;28667;50.758;6.096;2023-04-25T08:35:29;7.70;99.90
43043;DHT22;28667;50.758;6.096;2023-04-25T08:38:11;7.80;99.90
43043;DHT22;28667;50.758;6.096;2023-04-25T08:40:39;7.90;99.90
43043;DHT22;28667;50.758;6.096;2023-04-25T08:43:19;8.10;99.90
43043;DHT22;28667;50.758;6.096;2023-04-25T08:46:13;8.20;99.90
43043;DHT22;28667;50.758;6.096;2023-04-25T08:49:02;8.40;99.90
43043;DHT22;28667;50.758;6.096;2023-04-25T08:51:31;8.40;99.90
43043;DHT22;28667;50.758;6.096;2023-04-25T08:54:09;8.50;99.90
43043;DHT22;28667;50.758;6.096;2023-04-25T08:56:38;8.50;99.90
43043;DHT22;28667;50.758;6.096;2023-04-25T08:59:04;8.50;99.90
43043;DHT22;28667;50.758;6.096;2023-04-25T09:01:37;8.50;99.90
43043;DHT22;28667;50.758;6.096;2023-04-25T09:04:03;8.50;99.90
43043;DHT22;28667;50.758;6.096;2023-04-25T09:06:29;8.40;99.90
43043;DHT22;28667;50.758;6.096;2023-04-25T09:09:07;8.50;99.90
43043;DHT22;28667;50.758;6.096;2023-04-25T09:11:34;8.50;99.90
43043;DHT22;28667;50.758;6.096;2023-04-25T09:14:18;8.60;99.90
43043;DHT22;28667;50.758;6.096;2023-04-25T09:17:11;8.70;99.90
43043;DHT22;28667;50.758;6.096;2023-04-25T09:20:11;8.80;99.90
43043;DHT22;28667;50.758;6.096;2023-04-25T09:23:15;8.70;99.90
43043;DHT22;28667;50.758;6.096;2023-04-25T09:25:43;8.60;99.90
43043;DHT22;28667;50.758;6.096;2023-04-25T09:28:43;8.50;99.90
43043;DHT22;28667;50.758;6.096;2023-04-25T09:31:41;8.30;99.90
43043;DHT22;28667;50.758;6.096;2023-04-25T09:34:12;8.30;99.90
43043;DHT22;28667;50.758;6.096;2023-04-25T09:36:54;8.30;99.90
43043;DHT22;28667;50.758;6.096;2023-04-25T09:43:02;8.40;99.90
43043;DHT22;28667;50.758;6.096;2023-04-25T09:45:38;8.30;99.90
43043;DHT22;28667;50.758;6.096;2023-04-25T09:48:10;8.20;99.90
43043;DHT22;28667;50.758;6.096;2023-04-25T09:51:15;8.20;99.90
43043;DHT22;28667;50.758;6.096;2023-04-25T09:53:49;8.10;99.90
43043;DHT22;28667;50.758;6.096;2023-04-25T09:56:53;8.10;99.90
43043;DHT22;28667;50.758;6.096;2023-04-25T10:02:37;8.00;99.90
43043;DHT22;28667;50.758;6.096;2023-04-25T10:05:26;8.00;99.90
43043;DHT22;28667;50.758;6.096;2023-04-25T10:08:18;8.00;99.90
43043;DHT22;28667;50.758;6.096;2023-04-25T10:11:41;7.90;99.90
43043;DHT22;28667;50.758;6.096;2023-04-25T10:14:38;8.00;99.90
43043;DHT22;28667;50.758;6.096;2023-04-25T10:17:05;7.90;99.90
43043;DHT22;28667;50.758;6.096;2023-04-25T10:19:47;7.90;99.90
43043;DHT22;28667;50.758;6.096;2023-04-25T10:22:29;7.80;99.90
43043;DHT22;28667;50.758;6.096;2023-04-25T10:32:07;8.30;99.90
43043;DHT22;28667;50.758;6.096;2023-04-25T10:35:58;8.40;99.90
43043;DHT22;28667;50.758;6.096;2023-04-25T10:42:36;8.40;99.90
43043;DHT22;28667;50.758;6.096;2023-04-25T10:49:44;8.60;99.90
43043;DHT22;28667;50.758;6.096;2023-04-25T10:53:14;8.90;99.90
43043;DHT22;28667;50.758;6.096;2023-04-25T11:09:12;9.70;99.90
43043;DHT22;28667;50.758;6.096;2023-04-25T11:12:02;9.60;99.90
43043;DHT22;28667;50.758;6.096;2023-04-25T11:18:25;9.60;99.90
43043;DHT22;28667;50.758;6.096;2023-04-25T11:21:22;9.50;99.90
43043;DHT22;28667;50.758;6.096;2023-04-25T11:24:02;9.40;99.90
43043;DHT22;28667;50.758;6.096;2023-04-25T11:27:03;9.20;99.90
43043;DHT22;28667;50.758;6.096;2023-04-25T11:30:15;9.10;99.90
43043;DHT22;28667;50.758;6.096;2023-04-25T11:33:06;9.00;99.90
43043;DHT22;28667;50.758;6.096;2023-04-25T11:35:55;8.80;99.90
43043;DHT22;28667;50.758;6.096;2023-04-25T11:38:49;8.70;99.90
43043;DHT22;28667;50.758;6.096;2023-04-25T11:45:17;8.50;99.90
43043;DHT22;28667;50.758;6.096;2023-04-25T11:47:56;8.40;99.90
43043;DHT22;28667;50.758;6.096;2023-04-25T11:50:41;8.40;99.90
43043;DHT22;28667;50.758;6.096;2023-04-25T11:53:29;8.40;99.90
43043;DHT22;28667;50.758;6.096;2023-04-25T11:56:15;8.30;99.90
43043;DHT22;28667;50.758;6.096;2023-04-25T11:59:09;8.30;99.90
43043;DHT22;28667;50.758;6.096;2023-04-25T12:01:52;8.20;99.90
43043;DHT22;28667;50.758;6.096;2023-04-25T12:04:30;8.20;99.90
43043;DHT22;28667;50.758;6.096;2023-04-25T12:20:13;8.50;99.90
43043;DHT22;28667;50.758;6.096;2023-04-25T12:23:11;8.70;99.90
43043;DHT22;28667;50.758;6.096;2023-04-25T12:26:05;9.00;99.80
43043;DHT22;28667;50.758;6.096;2023-04-25T12:28:39;9.20;99.30
43043;DHT22;28667;50.758;6.096;2023-04-25T12:31:37;9.30;99.50
43043;DHT22;28667;50.758;6.096;2023-04-25T12:34:18;9.40;99.90
43043;DHT22;28667;50.758;6.096;2023-04-25T12:37:41;9.60;99.10
43043;DHT22;28667;50.758;6.096;2023-04-25T12:44:47;9.70;96.80
43043;DHT22;28667;50.758;6.096;2023-04-25T12:47:16;9.90;95.80
43043;DHT22;28667;50.758;6.096;2023-04-25T12:49:55;10.00;95.90
43043;DHT22;28667;50.758;6.096;2023-04-25T12:52:29;10.00;96.60
43043;DHT22;28667;50.758;6.096;2023-04-25T12:55:18;10.20;97.40
43043;DHT22;28667;50.758;6.096;2023-04-25T12:58:10;10.30;95.80
43043;DHT22;28667;50.758;6.096;2023-04-25T13:01:26;10.40;94.60
43043;DHT22;28667;50.758;6.096;2023-04-25T13:04:36;10.50;95.60
43043;DHT22;28667;50.758;6.096;2023-04-25T13:07:56;10.70;96.00
43043;DHT22;28667;50.758;6.096;2023-04-25T13:10:30;10.90;95.00
43043;DHT22;28667;50.758;6.096;2023-04-25T13:13:36;11.00;94.80
43043;DHT22;28667;50.758;6.096;2023-04-25T13:17:09;11.20;95.10
43043;DHT22;28667;50.758;6.096;2023-04-25T13:20:00;11.30;94.60
43043;DHT22;28667;50.758;6.096;2023-04-25T13:22:39;11.10;93.80
43043;DHT22;28667;50.758;6.096;2023-04-25T13:25:27;10.80;93.00
43043;DHT22;28667;50.758;6.096;2023-04-25T13:27:58;10.60;94.20
43043;DHT22;28667;50.758;6.096;2023-04-25T13:30:50;10.40;94.40
43043;DHT22;28667;50.758;6.096;2023-04-25T13:33:42;10.30;95.30
43043;DHT22;28667;50.758;6.096;2023-04-25T13:37:05;10.30;93.50
43043;DHT22;28667;50.758;6.096;2023-04-25T13:40:10;10.30;93.10
43043;DHT22;28667;50.758;6.096;2023-04-25T13:42:37;10.40;93.00
43043;DHT22;28667;50.758;6.096;2023-04-25T13:45:04;10.50;93.60
43043;DHT22;28667;50.758;6.096;2023-04-25T13:47:29;10.60;93.60
43043;DHT22;28667;50.758;6.096;2023-04-25T13:49:56;10.60;93.00
43043;DHT22;28667;50.758;6.096;2023-04-25T13:54:51;10.30;94.20
43043;DHT22;28667;50.758;6.096;2023-04-25T13:57:17;10.20;95.40
43043;DHT22;28667;50.758;6.096;2023-04-25T13:59:43;9.80;96.90
43043;DHT22;28667;50.758;6.096;2023-04-25T14:02:09;9.40;97.70
43043;DHT22;28667;50.758;6.096;2023-04-25T14:04:35;9.10;99.20
43043;DHT22;28667;50.758;6.096;2023-04-25T14:07:02;8.90;99.90
43043;DHT22;28667;50.758;6.096;2023-04-25T14:09:29;8.90;99.90
43043;DHT22;28667;50.758;6.096;2023-04-25T14:11:55;8.70;99.90
43043;DHT22;28667;50.758;6.096;2023-04-25T14:14:22;8.60;99.90
43043;DHT22;28667;50.758;6.096;2023-04-25T14:16:49;8.70;99.90
43043;DHT22;28667;50.758;6.096;2023-04-25T14:19:16;8.60;99.90
43043;DHT22;28667;50.758;6.096;2023-04-25T14:21:42;8.50;99.90
43043;DHT22;28667;50.758;6.096;2023-04-25T14:24:11;8.60;99.90
43043;DHT22;28667;50.758;6.096;2023-04-25T14:26:37;8.60;99.90
43043;DHT22;28667;50.758;6.096;2023-04-25T14:29:06;8.70;99.90
43043;DHT22;28667;50.758;6.096;2023-04-25T14:31:35;8.80;99.90
43043;DHT22;28667;50.758;6.096;2023-04-25T14:34:01;8.90;99.90
43043;DHT22;28667;50.758;6.096;2023-04-25T14:36:31;9.00;99.90
43043;DHT22;28667;50.758;6.096;2023-04-25T14:38:58;9.10;99.90
43043;DHT22;28667;50.758;6.096;2023-04-25T14:41:24;9.20;99.90
43043;DHT22;28667;50.758;6.096;2023-04-25T14:43:50;9.40;99.90
43043;DHT22;28667;50.758;6.096;2023-04-25T14:46:16;9.50;99.90
43043;DHT22;28667;50.758;6.096;2023-04-25T14:48:42;9.70;99.90
43043;DHT22;28667;50.758;6.096;2023-04-25T14:51:08;9.80;99.80
43043;DHT22;28667;50.758;6.096;2023-04-25T14:53:33;9.90;99.30
43043;DHT22;28667;50.758;6.096;2023-04-25T14:55:59;10.00;98.80
43043;DHT22;28667;50.758;6.096;2023-04-25T14:58:25;10.10;98.90
43043;DHT22;28667;50.758;6.096;2023-04-25T15:00:51;10.10;98.90
43043;DHT22;28667;50.758;6.096;2023-04-25T15:03:17;10.20;99.10
43043;DHT22;28667;50.758;6.096;2023-04-25T15:05:43;10.30;98.90
43043;DHT22;28667;50.758;6.096;2023-04-25T15:08:09;10.20;99.30
43043;DHT22;28667;50.758;6.096;2023-04-25T15:10:36;10.10;99.30
43043;DHT22;28667;50.758;6.096;2023-04-25T15:13:02;10.00;99.50
43043;DHT22;28667;50.758;6.096;2023-04-25T15:15:28;9.90;99.90
43043;DHT22;28667;50.758;6.096;2023-04-25T15:17:55;9.60;99.90
43043;DHT22;28667;50.758;6.096;2023-04-25T15:20:21;9.50;99.90
43043;DHT22;28667;50.758;6.096;2023-04-25T15:22:47;9.40;99.90
43043;DHT22;28667;50.758;6.096;2023-04-25T15:25:16;9.40;99.90
43043;DHT22;28667;50.758;6.096;2023-04-25T15:27:45;9.30;99.90
43043;DHT22;28667;50.758;6.096;2023-04-25T15:30:14;9.30;99.90
43043;DHT22;28667;50.758;6.096;2023-04-25T15:32:41;9.20;99.90
43043;DHT22;28667;50.758;6.096;2023-04-25T15:35:07;9.30;99.90
43043;DHT22;28667;50.758;6.096;2023-04-25T15:37:34;9.30;99.90
43043;DHT22;28667;50.758;6.096;2023-04-25T15:40:09;9.30;99.90
43043;DHT22;28667;50.758;6.096;2023-04-25T15:42:39;9.30;99.90
43043;DHT22;28667;50.758;6.096;2023-04-25T15:45:07;9.40;99.90
43043;DHT22;28667;50.758;6.096;2023-04-25T15:47:34;9.50;99.90
43043;DHT22;28667;50.758;6.096;2023-04-25T15:50:01;9.50;99.90
43043;DHT22;28667;50.758;6.096;2023-04-25T15:52:26;9.60;99.90
43043;DHT22;28667;50.758;6.096;2023-04-25T15:54:52;9.70;99.90
43043;DHT22;28667;50.758;6.096;2023-04-25T15:57:19;9.90;99.90
43043;DHT22;28667;50.758;6.096;2023-04-25T15:59:47;10.10;99.90
43043;DHT22;28667;50.758;6.096;2023-04-25T16:02:13;10.20;99.90
43043;DHT22;28667;50.758;6.096;2023-04-25T16:04:39;10.30;99.00
43043;DHT22;28667;50.758;6.096;2023-04-25T16:07:05;10.50;98.30
43043;DHT22;28667;50.758;6.096;2023-04-25T16:09:31;10.60;99.00
43043;DHT22;28667;50.758;6.096;2023-04-25T16:11:58;10.70;98.00
43043;DHT22;28667;50.758;6.096;2023-04-25T16:14:24;10.80;98.20
43043;DHT22;28667;50.758;6.096;2023-04-25T16:16:49;10.90;99.10
43043;DHT22;28667;50.758;6.096;2023-04-25T16:19:15;11.00;98.90
43043;DHT22;28667;50.758;6.096;2023-04-25T16:21:42;11.00;97.40
43043;DHT22;28667;50.758;6.096;2023-04-25T16:24:08;10.90;97.60
43043;DHT22;28667;50.758;6.096;2023-04-25T16:26:35;10.80;96.60
43043;DHT22;28667;50.758;6.096;2023-04-25T16:29:04;10.70;96.10
43043;DHT22;28667;50.758;6.096;2023-04-25T16:31:30;10.50;96.50
43043;DHT22;28667;50.758;6.096;2023-04-25T16:33:56;10.40;95.60
43043;DHT22;28667;50.758;6.096;2023-04-25T16:36:22;10.30;96.60
43043;DHT22;28667;50.758;6.096;2023-04-25T16:38:48;10.20;95.70
43043;DHT22;28667;50.758;6.096;2023-04-25T16:41:14;10.20;95.20
43043;DHT22;28667;50.758;6.096;2023-04-25T16:43:39;10.10;95.80
43043;DHT22;28667;50.758;6.096;2023-04-25T16:46:05;10.00;95.30
43043;DHT22;28667;50.758;6.096;2023-04-25T16:48:31;9.90;95.50
43043;DHT22;28667;50.758;6.096;2023-04-25T16:50:57;9.80;95.20
43043;DHT22;28667;50.758;6.096;2023-04-25T16:53:23;9.80;95.50
43043;DHT22;28667;50.758;6.096;2023-04-25T16:55:50;9.90;95.10
43043;DHT22;28667;50.758;6.096;2023-04-25T16:58:15;9.80;94.60
43043;DHT22;28667;50.758;6.096;2023-04-25T17:00:41;9.80;94.10
43043;DHT22;28667;50.758;6.096;2023-04-25T17:03:07;9.80;93.80
43043;DHT22;28667;50.758;6.096;2023-04-25T17:05:34;9.70;95.10
43043;DHT22;28667;50.758;6.096;2023-04-25T17:08:00;9.70;94.10
43043;DHT22;28667;50.758;6.096;2023-04-25T17:10:26;9.70;94.80
43043;DHT22;28667;50.758;6.096;2023-04-25T17:12:52;9.60;94.10
43043;DHT22;28667;50.758;6.096;2023-04-25T17:15:18;9.50;95.10
43043;DHT22;28667;50.758;6.096;2023-04-25T17:17:44;9.50;95.50
43043;DHT22;28667;50.758;6.096;2023-04-25T17:20:10;9.60;95.60
43043;DHT22;28667;50.758;6.096;2023-04-25T17:22:36;9.60;95.10
43043;DHT22;28667;50.758;6.096;2023-04-25T17:25:02;9.70;95.30
43043;DHT22;28667;50.758;6.096;2023-04-25T17:27:29;9.70;95.40
43043;DHT22;28667;50.758;6.096;2023-04-25T17:29:54;9.70;95.00
43043;DHT22;28667;50.758;6.096;2023-04-25T17:32:20;9.70;95.30
43043;DHT22;28667;50.758;6.096;2023-04-25T17:34:47;9.70;95.80